TimeEDT,TemperatureF,Dew PointF,Humidity,Sea Level PressureIn,VisibilityMPH,Wind Direction,Wind SpeedMPH,Gust SpeedMPH,PrecipitationIn,Events,Conditions,WindDirDegrees,DateUTC
12:53 AM,52.0,43.0,71,30.02,10.0,SW,6.9,-,N/A,,Clear,230,2013-10-03 04:53:00
1:53 AM,48.9,42.1,77,30.02,10.0,SW,4.6,-,N/A,,Clear,220,2013-10-03 05:53:00
2:53 AM,50.0,42.1,74,30.03,10.0,SW,6.9,-,N/A,,Clear,230,2013-10-03 06:53:00
3:53 AM,48.9,42.1,77,30.04,10.0,SW,5.8,-,N/A,,Clear,220,2013-10-03 07:53:00
4:53 AM,48.0,42.1,80,30.06,10.0,SW,4.6,-,N/A,,Clear,220,2013-10-03 08:53:00
5:53 AM,46.9,42.1,83,30.07,10.0,SW,4.6,-,N/A,,Clear,220,2013-10-03 09:53:00
6:53 AM,46.9,42.1,83,30.09,10.0,Calm,Calm,-,N/A,,Clear,0,2013-10-03 10:53:00
7:53 AM,46.9,44.1,90,30.11,10.0,SSW,3.5,-,N/A,,Clear,210,2013-10-03 11:53:00
8:53 AM,54.0,46.9,77,30.12,10.0,SSW,4.6,-,N/A,,Clear,200,2013-10-03 12:53:00
9:53 AM,59.0,48.0,67,30.14,10.0,SW,5.8,-,N/A,,Clear,230,2013-10-03 13:53:00
10:53 AM,63.0,48.0,58,30.14,10.0,SW,3.5,-,N/A,,Clear,220,2013-10-03 14:53:00
11:53 AM,66.0,48.0,52,30.12,10.0,South,5.8,-,N/A,,Clear,180,2013-10-03 15:53:00
12:53 PM,69.1,48.0,47,30.09,10.0,Calm,Calm,-,N/A,,Clear,0,2013-10-03 16:53:00
1:53 PM,69.1,48.0,47,30.08,10.0,WSW,4.6,-,N/A,,Clear,240,2013-10-03 17:53:00
2:53 PM,71.1,50.0,47,30.06,10.0,West,4.6,-,N/A,,Clear,260,2013-10-03 18:53:00
3:53 PM,71.1,48.9,45,30.04,10.0,Calm,Calm,-,N/A,,Clear,0,2013-10-03 19:53:00
4:53 PM,71.1,50.0,47,30.04,10.0,NW,5.8,-,N/A,,Clear,320,2013-10-03 20:53:00
5:21 PM,69.8,48.2,46,30.04,10.0,WSW,6.9,-,N/A,,Partly Cloudy,240,2013-10-03 21:21:00
5:53 PM,68.0,46.0,45,30.05,10.0,Calm,Calm,-,N/A,,Clear,0,2013-10-03 21:53:00
6:53 PM,61.0,48.0,62,30.06,10.0,Calm,Calm,-,N/A,,Clear,0,2013-10-03 22:53:00
7:53 PM,55.9,50.0,80,30.07,10.0,Calm,Calm,-,N/A,,Clear,0,2013-10-03 23:53:00
8:53 PM,52.0,48.0,86,30.07,10.0,Calm,Calm,-,N/A,,Clear,0,2013-10-04 00:53:00
9:53 PM,51.1,46.9,86,30.08,10.0,Calm,Calm,-,N/A,,Clear,0,2013-10-04 01:53:00
10:53 PM,48.9,46.0,90,30.08,7.0,Calm,Calm,-,N/A,,Clear,0,2013-10-04 02:53:00